Aviation Digital Data Service (ADDS)

Output produced by METARs form (0325 UTC 21 September 2017)
found at http://www.aviationweather.gov/adds/metars/
 
FIMR 210300Z 10011KT 9999 FEW020 23/18 Q1021
TAF FIMR 202335Z 2100/2118 12015G25KT 9999 SCT018
       
FIMP 210300Z 06003KT 9999 FEW017 21/16 Q1021
TAF FIMP 202330Z 2100/2206 10010KT 9999 SCT016